createdAt,value
2019-02-16T00:00:34.515Z,4.80
2019-02-16T00:03:04.099Z,4.80
2019-02-16T00:05:32.497Z,4.80
2019-02-16T00:08:01.189Z,4.70
2019-02-16T00:10:29.837Z,4.70
2019-02-16T00:12:58.240Z,4.70
2019-02-16T00:15:27.875Z,4.70
2019-02-16T00:17:56.515Z,4.70
2019-02-16T00:20:24.795Z,4.70
2019-02-16T00:22:54.526Z,4.70
2019-02-16T00:25:22.782Z,4.70
2019-02-16T00:27:51.160Z,4.70
2019-02-16T00:30:19.764Z,4.70
2019-02-16T00:32:48.525Z,4.70
2019-02-16T00:35:16.897Z,4.60
2019-02-16T00:37:45.606Z,4.60
2019-02-16T00:40:14.690Z,4.50
2019-02-16T00:42:43.354Z,4.50
2019-02-16T00:45:12.085Z,4.50
2019-02-16T00:47:40.742Z,4.40
2019-02-16T00:50:09.015Z,4.30
2019-02-16T00:52:37.741Z,4.30
2019-02-16T00:55:06.397Z,4.20
2019-02-16T00:57:34.877Z,4.10
2019-02-16T01:00:03.389Z,4.20
2019-02-16T01:02:31.738Z,4.10
2019-02-16T01:05:00.314Z,4.10
2019-02-16T01:07:29.320Z,4.00
2019-02-16T01:10:01.827Z,3.90
2019-02-16T01:12:30.909Z,3.90
2019-02-16T01:14:59.544Z,4.00
2019-02-16T01:17:28.253Z,3.90
2019-02-16T01:19:56.980Z,3.80
2019-02-16T01:22:25.621Z,3.80
2019-02-16T01:24:54.318Z,3.80
2019-02-16T01:27:23.028Z,3.80
2019-02-16T01:29:51.659Z,3.70
2019-02-16T01:32:20.359Z,3.70
2019-02-16T01:34:48.877Z,3.70
2019-02-16T01:37:17.525Z,3.70
2019-02-16T01:39:46.213Z,3.70
2019-02-16T01:42:14.502Z,3.60
2019-02-16T01:44:42.766Z,3.60
2019-02-16T01:47:11.707Z,3.50
2019-02-16T01:49:40.384Z,3.50
2019-02-16T01:52:09.220Z,3.50
2019-02-16T01:54:38.018Z,3.50
2019-02-16T01:57:06.531Z,3.50
2019-02-16T01:59:34.873Z,3.40
2019-02-16T02:02:07.384Z,3.30
2019-02-16T02:04:36.792Z,3.40
2019-02-16T02:07:05.321Z,3.30
2019-02-16T02:09:33.920Z,3.30
2019-02-16T02:12:02.826Z,3.40
2019-02-16T02:14:31.721Z,3.30
2019-02-16T02:17:00.178Z,3.30
2019-02-16T02:19:29.097Z,3.30
2019-02-16T02:21:57.810Z,3.40
2019-02-16T02:24:26.191Z,3.40
2019-02-16T02:26:54.943Z,3.40
2019-02-16T02:29:23.590Z,3.50
2019-02-16T02:31:52.279Z,3.50
2019-02-16T02:34:21.006Z,3.50
2019-02-16T02:36:49.650Z,3.50
2019-02-16T02:39:18.122Z,3.50
2019-02-16T02:41:47.279Z,3.50
2019-02-16T02:44:16.321Z,3.40
2019-02-16T02:46:45.002Z,3.40
2019-02-16T02:49:13.746Z,3.40
2019-02-16T02:51:51.704Z,3.40
2019-02-16T02:54:12.701Z,3.30
2019-02-16T02:56:41.435Z,3.30
2019-02-16T02:59:09.790Z,3.30
2019-02-16T03:01:37.934Z,3.20
2019-02-16T03:04:06.660Z,3.10
2019-02-16T03:06:35.302Z,3.10
2019-02-16T03:09:04.795Z,3.10
2019-02-16T03:11:34.773Z,3.10
2019-02-16T03:14:03.214Z,3.10
2019-02-16T03:16:31.894Z,3.10
2019-02-16T03:19:00.625Z,3.10
2019-02-16T03:21:29.287Z,3.10
2019-02-16T03:23:57.955Z,3.10
2019-02-16T03:26:54.758Z,2.90
2019-02-16T03:29:52.067Z,2.90
2019-02-16T03:33:14.647Z,2.90
2019-02-16T03:36:13.926Z,2.80
2019-02-16T03:38:59.134Z,2.70
2019-02-16T03:41:27.556Z,2.70
2019-02-16T03:43:56.051Z,2.60
2019-02-16T03:46:24.761Z,2.70
2019-02-16T03:48:53.933Z,2.60
2019-02-16T03:51:22.264Z,2.60
2019-02-16T03:53:50.511Z,2.60
2019-02-16T03:56:19.064Z,2.60
2019-02-16T03:58:47.366Z,2.70
2019-02-16T04:01:16.059Z,2.70
2019-02-16T04:03:44.298Z,2.60
2019-02-16T04:06:12.985Z,2.60
2019-02-16T04:08:41.713Z,2.60
2019-02-16T04:11:11.169Z,2.50
2019-02-16T04:13:39.858Z,2.50
2019-02-16T04:16:08.582Z,2.50
2019-02-16T04:18:36.929Z,2.50
2019-02-16T04:21:05.409Z,2.50
2019-02-16T04:23:33.852Z,2.40
2019-02-16T04:26:06.898Z,2.40
2019-02-16T04:28:35.188Z,2.40
2019-02-16T04:31:03.779Z,2.30
2019-02-16T04:33:32.436Z,2.30
2019-02-16T04:36:00.487Z,2.30
2019-02-16T04:38:29.212Z,2.40
2019-02-16T04:40:57.481Z,2.40
2019-02-16T04:43:26.128Z,2.40
2019-02-16T04:45:54.871Z,2.30
2019-02-16T04:48:23.500Z,2.30
2019-02-16T04:50:58.382Z,2.30
2019-02-16T04:53:27.018Z,2.30
2019-02-16T04:55:55.720Z,2.30
2019-02-16T04:58:24.005Z,2.30
2019-02-16T05:00:52.658Z,2.20
2019-02-16T05:03:21.145Z,2.10
2019-02-16T05:05:49.475Z,2.10
2019-02-16T05:08:18.120Z,2.10
2019-02-16T05:10:46.984Z,2.10
2019-02-16T05:13:15.426Z,2.10
2019-02-16T05:15:44.789Z,2.10
2019-02-16T05:18:14.062Z,2.10
2019-02-16T05:20:42.805Z,2.10
2019-02-16T05:23:11.366Z,2.20
2019-02-16T05:25:39.938Z,2.20
2019-02-16T05:28:08.656Z,2.10
2019-02-16T05:30:37.089Z,2.10
2019-02-16T05:33:07.111Z,2.10
2019-02-16T05:35:35.741Z,2.10
2019-02-16T05:38:04.777Z,2.20
2019-02-16T05:40:33.187Z,2.20
2019-02-16T05:43:01.802Z,2.30
2019-02-16T05:45:30.453Z,2.30
2019-02-16T05:47:58.718Z,2.30
2019-02-16T05:50:27.238Z,2.40
2019-02-16T05:52:59.773Z,2.40
2019-02-16T05:55:30.137Z,2.40
2019-02-16T05:57:58.583Z,2.50
2019-02-16T06:00:28.901Z,2.50
2019-02-16T06:02:57.618Z,2.50
2019-02-16T06:05:26.056Z,2.60
2019-02-16T06:07:54.336Z,2.60
2019-02-16T06:10:22.658Z,2.60
2019-02-16T06:12:51.095Z,2.60
2019-02-16T06:15:19.478Z,2.70
2019-02-16T06:17:48.094Z,2.70
2019-02-16T06:20:16.738Z,2.60
2019-02-16T06:22:45.232Z,2.60
2019-02-16T06:25:13.631Z,2.60
2019-02-16T06:27:42.391Z,2.60
2019-02-16T06:30:10.671Z,2.60
2019-02-16T06:32:39.192Z,2.70
2019-02-16T06:35:27.077Z,2.70
2019-02-16T06:37:55.824Z,2.70
2019-02-16T06:40:24.443Z,2.70
2019-02-16T06:42:53.146Z,2.80
2019-02-16T06:45:21.861Z,2.80
2019-02-16T06:47:50.672Z,2.70
2019-02-16T06:50:19.209Z,2.70
2019-02-16T06:52:47.925Z,2.70
2019-02-16T06:55:16.576Z,2.70
2019-02-16T06:57:48.585Z,2.70
2019-02-16T07:00:24.053Z,2.80
2019-02-16T07:03:10.984Z,2.80
2019-02-16T07:05:44.601Z,2.90
2019-02-16T07:08:30.729Z,2.90
2019-02-16T07:11:06.397Z,2.90
2019-02-16T07:14:02.487Z,2.90
2019-02-16T07:16:54.170Z,3.00
2019-02-16T07:19:49.896Z,3.00
2019-02-16T07:22:27.730Z,3.00
2019-02-16T07:25:06.714Z,3.00
2019-02-16T07:27:41.496Z,3.10
2019-02-16T07:30:17.150Z,3.10
2019-02-16T07:32:52.983Z,3.10
2019-02-16T07:35:27.471Z,3.20
2019-02-16T07:38:01.179Z,3.10
2019-02-16T07:40:34.114Z,3.10
2019-02-16T07:43:22.546Z,3.10
2019-02-16T07:46:17.712Z,3.20
2019-02-16T07:49:03.440Z,3.20
2019-02-16T07:52:19.490Z,3.30
2019-02-16T07:55:10.075Z,3.30
2019-02-16T08:01:16.934Z,3.40
2019-02-16T08:04:11.457Z,3.40
2019-02-16T08:07:17.200Z,3.40
2019-02-16T08:10:08.941Z,3.40
2019-02-16T08:12:59.564Z,3.50
2019-02-16T08:16:06.457Z,3.60
2019-02-16T08:19:06.756Z,3.60
2019-02-16T08:21:56.923Z,3.70
2019-02-16T08:25:07.453Z,3.70
2019-02-16T08:28:12.757Z,3.70
2019-02-16T08:31:09.578Z,3.70
2019-02-16T08:34:02.099Z,3.80
2019-02-16T08:36:55.727Z,3.90
2019-02-16T08:39:55.659Z,3.90
2019-02-16T08:42:44.588Z,4.00
2019-02-16T08:45:44.804Z,4.10
2019-02-16T08:48:36.113Z,4.10
2019-02-16T08:51:41.998Z,4.20
2019-02-16T08:54:36.081Z,4.20
2019-02-16T08:57:27.203Z,4.30
2019-02-16T09:00:17.544Z,4.30
2019-02-16T09:03:01.106Z,4.40
2019-02-16T09:05:47.745Z,4.50
2019-02-16T09:08:37.216Z,4.50
2019-02-16T09:11:47.822Z,4.60
2019-02-16T09:14:59.448Z,4.60
2019-02-16T09:18:10.167Z,4.70
2019-02-16T09:21:27.576Z,4.70
2019-02-16T09:24:19.762Z,4.70
2019-02-16T09:27:45.406Z,4.70
2019-02-16T09:30:59.969Z,4.80
2019-02-16T09:34:14.388Z,4.80
2019-02-16T09:37:06.366Z,4.90
2019-02-16T09:39:50.579Z,5.00
2019-02-16T09:42:39.454Z,5.00
2019-02-16T09:45:46.794Z,5.10
2019-02-16T09:48:42.445Z,5.20
2019-02-16T09:51:46.494Z,5.20
2019-02-16T09:54:30.988Z,5.30
2019-02-16T09:57:21.653Z,5.30
2019-02-16T10:00:14.024Z,5.40
2019-02-16T10:02:54.710Z,5.50
2019-02-16T10:06:09.537Z,5.50
2019-02-16T10:08:53.197Z,5.60
2019-02-16T10:12:03.328Z,5.70
2019-02-16T10:14:57.447Z,5.80
2019-02-16T10:17:40.373Z,5.80
2019-02-16T10:20:26.190Z,5.90
2019-02-16T10:23:30.478Z,6.00
2019-02-16T10:26:20.216Z,6.00
2019-02-16T10:29:12.617Z,6.10
2019-02-16T10:32:21.639Z,6.10
2019-02-16T10:35:11.399Z,6.20
2019-02-16T10:38:21.537Z,6.20
2019-02-16T10:41:15.245Z,6.30
2019-02-16T10:44:33.698Z,6.40
2019-02-16T10:47:21.021Z,6.50
2019-02-16T10:50:17.937Z,6.60
2019-02-16T10:52:56.210Z,6.70
2019-02-16T10:55:42.646Z,6.80
2019-02-16T10:58:29.341Z,6.90
2019-02-16T11:01:15.982Z,7.00
2019-02-16T11:03:50.129Z,7.10
2019-02-16T11:06:46.987Z,7.10
2019-02-16T11:09:32.352Z,7.10
2019-02-16T11:12:29.013Z,7.10
2019-02-16T11:15:04.576Z,7.10
2019-02-16T11:17:55.899Z,7.30
2019-02-16T11:20:38.882Z,7.40
2019-02-16T11:23:29.333Z,7.50
2019-02-16T11:26:29.181Z,7.60
2019-02-16T11:29:16.872Z,7.70
2019-02-16T11:32:16.440Z,7.80
2019-02-16T11:35:08.137Z,7.90
2019-02-16T11:38:01.142Z,8.10
2019-02-16T11:40:50.017Z,8.20
2019-02-16T11:43:42.834Z,8.30
2019-02-16T11:46:33.845Z,8.30
2019-02-16T11:49:11.643Z,8.40
2019-02-16T11:52:02.580Z,8.50
2019-02-16T11:54:49.554Z,8.50
2019-02-16T11:57:44.742Z,8.50
2019-02-16T12:00:35.510Z,8.60
2019-02-16T12:03:23.965Z,8.60
2019-02-16T12:06:02.546Z,8.60
2019-02-16T12:08:41.006Z,8.60
2019-02-16T12:11:25.914Z,8.70
2019-02-16T12:14:06.952Z,8.70
2019-02-16T12:16:54.909Z,8.80
2019-02-16T12:19:46.610Z,8.90
2019-02-16T12:22:40.419Z,8.90
2019-02-16T12:25:28.899Z,8.90
2019-02-16T12:28:21.487Z,9.00
2019-02-16T12:31:12.589Z,9.20
2019-02-16T12:34:07.047Z,9.30
2019-02-16T12:36:54.828Z,9.60
2019-02-16T12:39:40.402Z,9.70
2019-02-16T12:42:26.894Z,9.90
2019-02-16T12:45:13.794Z,9.90
2019-02-16T12:47:52.804Z,10.00
2019-02-16T12:50:50.479Z,9.90
2019-02-16T12:53:47.711Z,9.90
2019-02-16T12:56:25.516Z,10.10
2019-02-16T12:59:22.559Z,10.20
2019-02-16T13:02:16.474Z,10.20
2019-02-16T13:04:56.653Z,10.30
2019-02-16T13:07:36.107Z,10.40
2019-02-16T13:10:30.048Z,10.40
2019-02-16T13:13:18.731Z,10.50
2019-02-16T13:16:05.515Z,10.60
2019-02-16T13:18:55.377Z,10.70
2019-02-16T13:21:40.170Z,10.80
2019-02-16T13:24:23.267Z,11.00
2019-02-16T13:27:17.626Z,11.00
2019-02-16T13:30:10.026Z,11.00
2019-02-16T13:33:08.294Z,11.10
2019-02-16T13:35:59.441Z,11.20
2019-02-16T13:38:50.525Z,11.20
2019-02-16T13:41:50.555Z,11.30
2019-02-16T13:44:45.703Z,11.40
2019-02-16T13:47:35.545Z,11.50
2019-02-16T13:50:32.608Z,11.60
2019-02-16T13:53:19.028Z,11.70
2019-02-16T13:56:05.663Z,11.70
2019-02-16T13:58:56.674Z,11.80
2019-02-16T14:01:32.846Z,11.90
2019-02-16T14:04:32.937Z,12.00
2019-02-16T14:07:23.757Z,12.10
2019-02-16T14:10:14.423Z,12.20
2019-02-16T14:13:27.981Z,12.30
2019-02-16T14:16:08.026Z,12.30
2019-02-16T14:18:36.753Z,12.40
2019-02-16T14:21:05.421Z,12.40
2019-02-16T14:23:34.327Z,12.50
2019-02-16T14:26:03.060Z,12.50
2019-02-16T14:28:31.636Z,12.50
2019-02-16T14:31:01.034Z,12.60
2019-02-16T14:33:29.374Z,12.60
2019-02-16T14:35:57.845Z,12.60
2019-02-16T14:38:44.224Z,12.60
2019-02-16T14:41:12.973Z,12.60
2019-02-16T14:43:41.641Z,12.60
2019-02-16T14:46:10.342Z,12.60
2019-02-16T14:48:38.985Z,12.60
2019-02-16T14:51:07.673Z,12.60
2019-02-16T14:53:35.984Z,12.60
2019-02-16T14:56:04.631Z,12.70
2019-02-16T14:58:33.335Z,12.60
2019-02-16T15:01:02.928Z,12.70
2019-02-16T15:03:31.754Z,12.70
2019-02-16T15:06:00.426Z,12.80
2019-02-16T15:08:29.150Z,12.80
2019-02-16T15:10:57.485Z,12.80
2019-02-16T15:13:25.857Z,12.80
2019-02-16T15:15:54.573Z,12.80
2019-02-16T15:18:23.167Z,12.80
2019-02-16T15:20:51.928Z,12.80
2019-02-16T15:23:20.629Z,12.70
2019-02-16T15:25:48.882Z,12.70
2019-02-16T15:28:17.610Z,12.70
2019-02-16T15:30:46.111Z,12.70
2019-02-16T15:33:14.534Z,12.70
2019-02-16T15:35:43.488Z,12.70
2019-02-16T15:38:12.447Z,12.70
2019-02-16T15:40:40.992Z,12.70
2019-02-16T15:43:09.983Z,12.60
2019-02-16T15:45:38.946Z,12.60
2019-02-16T15:48:07.768Z,12.60
2019-02-16T15:50:36.418Z,12.60
2019-02-16T15:53:05.301Z,12.60
2019-02-16T15:55:33.990Z,12.50
2019-02-16T15:58:02.591Z,12.50
2019-02-16T16:00:31.466Z,12.50
2019-02-16T16:03:00.194Z,12.40
2019-02-16T16:05:31.154Z,12.40
2019-02-16T16:08:21.111Z,12.30
2019-02-16T16:10:56.188Z,12.30
2019-02-16T16:13:43.366Z,12.30
2019-02-16T16:16:20.094Z,12.20
2019-02-16T16:19:23.158Z,12.20
2019-02-16T16:22:21.730Z,12.20
2019-02-16T16:25:19.368Z,12.10
2019-02-16T16:27:56.916Z,12.10
2019-02-16T16:30:43.602Z,12.10
2019-02-16T16:33:37.538Z,12.10
2019-02-16T16:36:24.799Z,12.00
2019-02-16T16:39:00.678Z,12.00
2019-02-16T16:41:36.484Z,11.90
2019-02-16T16:44:28.182Z,11.90
2019-02-16T16:47:15.471Z,11.90
2019-02-16T16:49:58.516Z,11.80
2019-02-16T16:52:37.944Z,11.80
2019-02-16T16:55:36.839Z,11.70
2019-02-16T16:58:27.721Z,11.70
2019-02-16T17:01:33.802Z,11.70
2019-02-16T17:04:33.791Z,11.70
2019-02-16T17:07:21.946Z,11.60
2019-02-16T17:10:13.017Z,11.50
2019-02-16T17:13:00.998Z,11.40
2019-02-16T17:15:48.703Z,11.40
2019-02-16T17:18:33.979Z,11.30
2019-02-16T17:21:12.708Z,11.10
2019-02-16T17:24:14.466Z,11.10
2019-02-16T17:27:06.789Z,11.00
2019-02-16T17:29:45.424Z,10.90
2019-02-16T17:32:48.395Z,10.80
2019-02-16T17:35:39.574Z,10.70
2019-02-16T17:38:26.700Z,10.60
2019-02-16T17:41:22.374Z,10.50
2019-02-16T17:44:43.565Z,10.40
2019-02-16T17:47:29.969Z,10.40
2019-02-16T17:50:29.027Z,10.30
2019-02-16T17:53:12.201Z,10.20
2019-02-16T17:55:53.167Z,10.20
2019-02-16T17:58:37.531Z,10.10
2019-02-16T18:01:21.439Z,10.00
2019-02-16T18:04:15.083Z,9.90
2019-02-16T18:07:03.066Z,9.90
2019-02-16T18:09:54.570Z,9.80
2019-02-16T18:12:46.651Z,9.80
2019-02-16T18:15:28.871Z,9.70
2019-02-16T18:18:20.758Z,9.70
2019-02-16T18:21:24.728Z,9.70
2019-02-16T18:24:21.249Z,9.70
2019-02-16T18:27:12.464Z,9.60
2019-02-16T18:29:59.054Z,9.60
2019-02-16T18:32:46.042Z,9.50
2019-02-16T18:35:32.878Z,9.50
2019-02-16T18:38:09.148Z,9.40
2019-02-16T18:40:56.618Z,9.40
2019-02-16T18:43:48.427Z,9.30
2019-02-16T18:46:34.803Z,9.20
2019-02-16T18:49:12.627Z,9.10
2019-02-16T18:52:02.548Z,9.00
2019-02-16T18:54:42.261Z,9.00
2019-02-16T18:57:27.774Z,8.90
2019-02-16T19:00:27.996Z,8.80
2019-02-16T19:03:25.117Z,8.70
2019-02-16T19:06:15.945Z,8.60
2019-02-16T19:09:06.527Z,8.50
2019-02-16T19:11:49.945Z,8.50
2019-02-16T19:14:27.539Z,8.50
2019-02-16T19:17:18.900Z,8.40
2019-02-16T19:19:59.767Z,8.40
2019-02-16T19:22:47.336Z,8.30
2019-02-16T19:25:28.237Z,8.20
2019-02-16T19:28:22.957Z,8.10
2019-02-16T19:31:10.793Z,8.10
2019-02-16T19:34:01.938Z,8.00
2019-02-16T19:36:45.646Z,8.00
2019-02-16T19:39:36.699Z,7.90
2019-02-16T19:42:12.514Z,7.80
2019-02-16T19:44:59.210Z,7.70
2019-02-16T19:47:49.637Z,7.70
2019-02-16T19:50:36.321Z,7.60
2019-02-16T19:53:22.947Z,7.50
2019-02-16T19:56:09.814Z,7.50
2019-02-16T19:58:56.492Z,7.40
2019-02-16T20:01:57.845Z,7.40
2019-02-16T20:04:56.768Z,7.30
2019-02-16T20:07:39.202Z,7.30
2019-02-16T20:10:21.483Z,7.20
2019-02-16T20:13:21.907Z,7.10
2019-02-16T20:16:10.343Z,7.00
2019-02-16T20:18:59.279Z,7.00
2019-02-16T20:21:38.733Z,6.90
2019-02-16T20:24:34.711Z,6.90
2019-02-16T20:27:37.324Z,6.90
2019-02-16T20:30:21.877Z,6.90
2019-02-16T20:33:15.977Z,7.00
2019-02-16T20:36:09.236Z,7.00
2019-02-16T20:39:04.225Z,7.10
2019-02-16T20:41:56.495Z,7.20
2019-02-16T20:44:34.993Z,7.20
2019-02-16T20:47:29.217Z,7.30
2019-02-16T20:50:23.017Z,7.40
2019-02-16T20:53:02.084Z,7.50
2019-02-16T20:55:55.683Z,7.50
2019-02-16T20:58:37.991Z,7.60
2019-02-16T21:01:28.586Z,7.70
2019-02-16T21:04:10.742Z,7.70
2019-02-16T21:07:01.931Z,7.70
2019-02-16T21:09:49.780Z,7.80
2019-02-16T21:12:36.652Z,7.80
2019-02-16T21:15:28.608Z,7.80
2019-02-16T21:18:22.391Z,7.90
2019-02-16T21:21:19.130Z,7.80
2019-02-16T21:24:02.698Z,7.80
2019-02-16T21:26:56.264Z,7.80
2019-02-16T21:29:35.408Z,7.80
2019-02-16T21:32:21.965Z,7.80
2019-02-16T21:35:08.730Z,7.70
2019-02-16T21:38:03.075Z,7.70
2019-02-16T21:40:49.822Z,7.60
2019-02-16T21:43:46.233Z,7.60
2019-02-16T21:46:41.063Z,7.60
2019-02-16T21:49:39.516Z,7.60
2019-02-16T21:52:30.440Z,7.60
2019-02-16T21:55:11.514Z,7.60
2019-02-16T21:58:07.786Z,7.60
2019-02-16T22:01:00.578Z,7.70
2019-02-16T22:03:42.334Z,7.60
2019-02-16T22:06:30.500Z,7.60
2019-02-16T22:09:16.299Z,7.50
2019-02-16T22:12:10.777Z,7.50
2019-02-16T22:14:39.534Z,7.40
2019-02-16T22:17:08.638Z,7.30
2019-02-16T22:19:37.347Z,7.20
2019-02-16T22:22:05.902Z,7.10
2019-02-16T22:24:34.866Z,7.00
2019-02-16T22:27:03.440Z,7.00
2019-02-16T22:29:31.833Z,6.90
2019-02-16T22:32:00.835Z,6.80
2019-02-16T22:34:29.922Z,6.70
2019-02-16T22:36:58.323Z,6.70
2019-02-16T22:39:27.471Z,6.60
2019-02-16T22:41:56.443Z,6.60
2019-02-16T22:44:25.024Z,6.50
2019-02-16T22:46:53.693Z,6.40
2019-02-16T22:49:22.622Z,6.40
2019-02-16T22:51:51.982Z,6.30
2019-02-16T22:54:23.647Z,6.30
2019-02-16T22:56:59.634Z,6.20
2019-02-16T22:59:32.930Z,6.10
2019-02-16T23:02:08.554Z,6.10
2019-02-16T23:04:40.465Z,6.00
2019-02-16T23:07:12.406Z,6.00
2019-02-16T23:09:53.523Z,6.00
2019-02-16T23:12:24.169Z,5.90
2019-02-16T23:15:08.907Z,5.90
2019-02-16T23:17:41.888Z,5.90
2019-02-16T23:20:13.015Z,5.90
2019-02-16T23:22:43.368Z,5.80
2019-02-16T23:25:15.955Z,5.80
2019-02-16T23:27:46.059Z,5.70
2019-02-16T23:30:15.137Z,5.70
2019-02-16T23:32:43.417Z,5.70
2019-02-16T23:35:11.862Z,5.60
2019-02-16T23:37:41.211Z,5.60
2019-02-16T23:40:09.998Z,5.50
2019-02-16T23:42:38.503Z,5.50
2019-02-16T23:45:07.513Z,5.50
2019-02-16T23:47:36.035Z,5.40
2019-02-16T23:50:05.174Z,5.40
2019-02-16T23:52:33.626Z,5.40
2019-02-16T23:55:02.526Z,5.40
2019-02-16T23:57:32.058Z,5.40
